createdAt,value
2019-04-14T00:02:33.643Z,3.44
2019-04-14T00:05:04.561Z,3.44
2019-04-14T00:07:34.042Z,3.34
2019-04-14T00:10:05.033Z,3.27
2019-04-14T00:12:35.829Z,3.29
2019-04-14T00:15:17.620Z,3.26
2019-04-14T00:17:36.931Z,3.21
2019-04-14T00:20:07.376Z,3.20
2019-04-14T00:22:36.569Z,3.16
2019-04-14T00:25:06.629Z,3.13
2019-04-14T00:27:36.712Z,3.13
2019-04-14T00:30:07.992Z,3.08
2019-04-14T00:35:40.695Z,3.03
2019-04-14T00:38:34.616Z,3.00
2019-04-14T00:41:34.374Z,2.96
2019-04-14T00:44:05.692Z,2.94
2019-04-14T00:46:47.483Z,2.91
2019-04-14T00:49:17.871Z,2.88
2019-04-14T00:51:48.434Z,2.86
2019-04-14T00:54:17.660Z,2.82
2019-04-14T00:56:47.646Z,2.78
2019-04-14T00:59:17.895Z,2.73
2019-04-14T01:01:48.395Z,2.73
2019-04-14T01:04:18.740Z,2.71
2019-04-14T01:06:48.942Z,2.71
2019-04-14T01:09:19.316Z,2.74
2019-04-14T01:11:49.111Z,2.74
2019-04-14T01:14:19.045Z,2.72
2019-04-14T01:16:49.405Z,2.81
2019-04-14T01:19:19.833Z,2.85
2019-04-14T01:21:50.216Z,2.81
2019-04-14T01:24:20.600Z,2.76
2019-04-14T01:26:50.664Z,2.73
2019-04-14T01:29:20.965Z,2.70
2019-04-14T01:31:51.438Z,2.69
2019-04-14T01:34:21.671Z,2.68
2019-04-14T01:36:51.827Z,2.65
2019-04-14T01:39:22.088Z,2.57
2019-04-14T01:41:52.121Z,2.54
2019-04-14T01:44:22.099Z,2.48
2019-04-14T01:46:52.179Z,2.50
2019-04-14T01:49:22.485Z,2.45
2019-04-14T01:52:29.628Z,2.42
2019-04-14T01:55:26.694Z,2.39
2019-04-14T01:58:12.227Z,2.38
2019-04-14T02:00:47.290Z,2.34
2019-04-14T02:03:17.058Z,2.33
2019-04-14T02:05:47.251Z,2.30
2019-04-14T02:08:17.762Z,2.24
2019-04-14T02:10:47.807Z,2.23
2019-04-14T02:13:18.181Z,2.22
2019-04-14T02:15:48.518Z,2.29
2019-04-14T02:18:18.594Z,2.26
2019-04-14T02:20:48.936Z,2.20
2019-04-14T02:23:19.241Z,2.17
2019-04-14T02:25:49.384Z,2.21
2019-04-14T02:28:19.799Z,2.16
2019-04-14T02:31:01.692Z,2.11
2019-04-14T02:33:46.631Z,2.09
2019-04-14T02:36:22.020Z,2.06
2019-04-14T02:41:27.758Z,2.05
2019-04-14T02:43:48.223Z,2.03
2019-04-14T02:46:20.474Z,2.00
2019-04-14T02:51:27.559Z,1.95
2019-04-14T02:56:40.585Z,1.89
2019-04-14T02:58:59.896Z,1.85
2019-04-14T03:01:31.413Z,1.83
2019-04-14T03:03:58.484Z,1.82
2019-04-14T03:06:25.368Z,1.81
2019-04-14T03:20:05.379Z,1.71
2019-04-14T03:22:37.787Z,1.69
2019-04-14T03:25:29.637Z,1.68
2019-04-14T03:28:27.957Z,1.67
2019-04-14T03:41:10.563Z,1.50
2019-04-14T03:43:39.242Z,1.43
2019-04-14T03:46:11.564Z,1.39
2019-04-14T03:51:08.554Z,1.40
2019-04-14T03:53:32.150Z,1.41
2019-04-14T03:56:21.299Z,1.41
2019-04-14T03:58:51.148Z,1.41
2019-04-14T04:01:21.512Z,1.38
2019-04-14T04:03:52.087Z,1.34
2019-04-14T04:06:22.393Z,1.29
2019-04-14T04:08:51.548Z,1.27
2019-04-14T04:11:21.474Z,1.25
2019-04-14T04:13:52.055Z,1.20
2019-04-14T04:16:50.783Z,1.19
2019-04-14T04:19:59.853Z,1.17
2019-04-14T04:22:47.663Z,1.14
2019-04-14T04:25:31.168Z,1.07
2019-04-14T04:28:19.238Z,1.01
2019-04-14T04:30:53.693Z,0.97
2019-04-14T04:33:45.932Z,0.94
2019-04-14T04:36:37.776Z,0.91
2019-04-14T04:39:21.358Z,0.88
2019-04-14T04:41:51.586Z,0.81
2019-04-14T04:44:20.691Z,0.73
2019-04-14T04:46:50.480Z,0.73
2019-04-14T04:49:23.079Z,0.73
2019-04-14T04:51:50.843Z,0.78
2019-04-14T04:54:21.046Z,0.80
2019-04-14T04:56:50.248Z,0.83
2019-04-14T04:59:19.366Z,0.86
2019-04-14T05:01:49.416Z,0.91
2019-04-14T05:04:19.606Z,0.93
2019-04-14T05:07:38.330Z,0.92
2019-04-14T05:10:26.427Z,0.88
2019-04-14T05:13:18.317Z,0.90
2019-04-14T05:15:53.628Z,0.91
2019-04-14T05:18:24.715Z,0.93
2019-04-14T05:20:55.226Z,1.00
2019-04-14T05:23:25.626Z,1.02
2019-04-14T05:25:56.142Z,1.07
2019-04-14T05:28:26.572Z,1.15
2019-04-14T05:30:56.868Z,1.21
2019-04-14T05:33:27.074Z,1.27
2019-04-14T05:35:57.438Z,1.34
2019-04-14T05:38:29.347Z,1.43
2019-04-14T05:40:58.391Z,1.49
2019-04-14T05:43:38.666Z,1.58
2019-04-14T05:45:59.319Z,1.65
2019-04-14T05:48:29.374Z,1.71
2019-04-14T05:50:59.777Z,1.79
2019-04-14T05:53:30.456Z,1.87
2019-04-14T05:56:01.319Z,1.98
2019-04-14T05:58:31.701Z,2.01
2019-04-14T06:01:02.424Z,2.10
2019-04-14T06:03:32.137Z,2.16
2019-04-14T06:06:01.361Z,1.92
2019-04-14T06:08:30.487Z,2.31
2019-04-14T06:10:59.725Z,2.36
2019-04-14T06:13:28.843Z,2.40
2019-04-14T06:15:58.017Z,2.46
2019-04-14T06:18:27.139Z,2.50
2019-04-14T06:20:56.279Z,2.58
2019-04-14T06:23:25.553Z,2.65
2019-04-14T06:25:54.714Z,2.71
2019-04-14T06:28:23.878Z,2.76
2019-04-14T06:31:10.791Z,2.84
2019-04-14T06:33:46.685Z,2.94
2019-04-14T06:36:33.352Z,3.05
2019-04-14T06:39:08.595Z,3.23
2019-04-14T06:41:37.767Z,3.41
2019-04-14T06:44:06.911Z,3.54
2019-04-14T06:46:36.092Z,3.75
2019-04-14T06:49:05.281Z,3.89
2019-04-14T06:51:34.393Z,4.06
2019-04-14T06:54:03.553Z,4.19
2019-04-14T06:56:32.750Z,4.25
2019-04-14T06:59:01.895Z,4.35
2019-04-14T07:01:31.039Z,4.43
2019-04-14T07:04:00.182Z,4.49
2019-04-14T07:06:29.294Z,4.66
2019-04-14T07:08:58.508Z,4.87
2019-04-14T07:11:27.689Z,5.18
2019-04-14T07:13:56.813Z,5.49
2019-04-14T07:16:25.984Z,5.89
2019-04-14T07:18:55.126Z,7.31
2019-04-14T07:21:24.271Z,8.52
2019-04-14T07:23:53.452Z,10.28
2019-04-14T07:26:22.601Z,12.16
2019-04-14T07:28:56.793Z,13.94
2019-04-14T07:31:34.139Z,15.35
2019-04-14T07:34:37.526Z,16.59
2019-04-14T07:37:25.738Z,17.78
2019-04-14T07:39:58.199Z,18.55
2019-04-14T07:42:39.760Z,19.11
2019-04-14T07:45:18.389Z,19.28
2019-04-14T07:48:09.290Z,19.41
2019-04-14T07:50:57.432Z,19.98
2019-04-14T07:53:51.406Z,20.55
2019-04-14T07:56:31.813Z,20.71
2019-04-14T07:59:15.756Z,20.86
2019-04-14T08:01:52.525Z,21.26
2019-04-14T08:04:25.912Z,21.71
2019-04-14T08:06:57.618Z,21.41
2019-04-14T08:09:26.758Z,21.46
2019-04-14T08:11:55.919Z,20.98
2019-04-14T08:14:25.119Z,20.94
2019-04-14T08:16:54.272Z,20.16
2019-04-14T08:19:23.448Z,19.21
2019-04-14T08:21:52.542Z,18.14
2019-04-14T08:24:21.718Z,17.37
2019-04-14T08:26:50.881Z,15.98
2019-04-14T08:29:20.235Z,15.98
2019-04-14T08:31:49.799Z,15.39
2019-04-14T08:34:18.930Z,15.55
2019-04-14T08:36:48.079Z,15.44
2019-04-14T08:39:17.232Z,15.50
2019-04-14T08:41:54.157Z,15.26
2019-04-14T08:44:42.228Z,15.14
2019-04-14T08:47:21.906Z,15.20
2019-04-14T08:50:19.025Z,15.56
2019-04-14T08:53:10.232Z,15.74
2019-04-14T08:56:04.206Z,15.89
2019-04-14T08:58:52.319Z,15.68
2019-04-14T09:01:39.331Z,15.67
2019-04-14T09:04:33.651Z,15.79
2019-04-14T09:07:27.673Z,15.75
2019-04-14T09:10:00.975Z,15.73
2019-04-14T09:12:33.208Z,15.54
2019-04-14T09:15:02.447Z,15.68
2019-04-14T09:17:31.579Z,15.50
2019-04-14T09:20:00.713Z,15.24
2019-04-14T09:22:29.856Z,15.05
2019-04-14T09:24:58.971Z,14.74
2019-04-14T09:27:28.128Z,14.54
2019-04-14T09:29:57.260Z,14.24
2019-04-14T09:32:27.468Z,14.06
2019-04-14T09:34:56.635Z,14.09
2019-04-14T09:37:25.787Z,14.12
2019-04-14T09:39:54.909Z,13.72
2019-04-14T09:42:24.047Z,13.50
2019-04-14T09:44:53.177Z,13.28
2019-04-14T09:47:22.340Z,13.08
2019-04-14T09:49:51.449Z,12.83
2019-04-14T09:52:20.566Z,12.67
2019-04-14T09:54:49.803Z,12.62
2019-04-14T09:57:18.955Z,12.90
2019-04-14T09:59:48.118Z,13.19
2019-04-14T10:02:17.257Z,13.20
2019-04-14T10:04:46.399Z,13.05
2019-04-14T10:07:15.540Z,12.76
2019-04-14T10:09:44.687Z,12.38
2019-04-14T10:12:13.837Z,12.35
2019-04-14T10:14:42.979Z,12.38
2019-04-14T10:17:12.269Z,11.90
2019-04-14T10:19:41.410Z,11.27
2019-04-14T10:22:10.565Z,11.01
2019-04-14T10:24:39.709Z,10.88
2019-04-14T10:27:08.996Z,10.50
2019-04-14T10:29:38.129Z,10.67
2019-04-14T10:32:07.316Z,10.59
2019-04-14T10:34:36.452Z,10.71
2019-04-14T10:37:05.645Z,10.78
2019-04-14T10:39:34.803Z,10.60
2019-04-14T10:42:04.018Z,10.39
2019-04-14T10:44:33.184Z,10.30
2019-04-14T10:47:02.323Z,10.27
2019-04-14T10:49:31.460Z,10.22
2019-04-14T10:52:00.595Z,10.10
2019-04-14T10:54:29.730Z,9.85
2019-04-14T10:57:01.072Z,9.83
2019-04-14T10:59:29.729Z,9.83
2019-04-14T11:01:58.867Z,9.77
2019-04-14T11:04:28.007Z,9.79
2019-04-14T11:07:22.196Z,9.48
2019-04-14T11:09:53.837Z,9.33
2019-04-14T11:12:22.190Z,9.19
2019-04-14T11:14:51.332Z,9.16
2019-04-14T11:17:20.473Z,9.22
2019-04-14T11:19:49.633Z,9.26
2019-04-14T11:22:18.794Z,9.30
2019-04-14T11:24:47.945Z,9.21
2019-04-14T11:27:17.079Z,9.16
2019-04-14T11:29:46.289Z,9.16
2019-04-14T11:32:37.210Z,9.23
2019-04-14T11:35:12.230Z,9.30
2019-04-14T11:38:06.436Z,9.25
2019-04-14T11:40:40.566Z,9.12
2019-04-14T11:43:09.794Z,9.15
2019-04-14T11:45:39.137Z,9.10
2019-04-14T11:48:08.280Z,9.16
2019-04-14T11:50:37.440Z,9.07
2019-04-14T11:53:06.584Z,9.18
2019-04-14T11:55:35.698Z,9.07
2019-04-14T11:58:04.841Z,8.89
2019-04-14T12:00:55.828Z,8.99
2019-04-14T12:03:46.935Z,8.93
2019-04-14T12:06:44.070Z,9.06
2019-04-14T12:09:18.807Z,9.11
2019-04-14T12:11:47.040Z,9.07
2019-04-14T12:14:16.122Z,8.89
2019-04-14T12:16:45.237Z,8.91
2019-04-14T12:19:14.398Z,8.89
2019-04-14T12:21:43.512Z,8.84
2019-04-14T12:24:12.666Z,8.82
2019-04-14T12:26:41.868Z,8.87
2019-04-14T12:29:11.836Z,8.90
2019-04-14T12:31:41.986Z,8.95
2019-04-14T12:34:11.252Z,8.92
2019-04-14T12:36:40.468Z,8.80
2019-04-14T12:39:17.153Z,8.77
2019-04-14T12:41:50.839Z,8.76
2019-04-14T12:44:37.450Z,8.71
2019-04-14T12:47:28.861Z,8.68
2019-04-14T12:49:58.577Z,8.64
2019-04-14T12:52:28.408Z,8.52
2019-04-14T12:54:57.906Z,8.60
2019-04-14T12:57:34.570Z,8.66
2019-04-14T13:00:05.961Z,8.62
2019-04-14T13:02:37.896Z,8.52
2019-04-14T13:05:07.270Z,8.37
2019-04-14T13:07:36.916Z,8.29
2019-04-14T13:10:07.512Z,8.31
2019-04-14T13:12:36.637Z,8.36
2019-04-14T13:15:06.673Z,8.40
2019-04-14T13:17:35.801Z,8.44
2019-04-14T13:20:05.365Z,8.07
2019-04-14T13:22:34.593Z,8.54
2019-04-14T13:25:03.831Z,8.47
2019-04-14T13:27:33.006Z,8.46
2019-04-14T13:30:02.137Z,8.44
2019-04-14T13:32:36.259Z,8.46
2019-04-14T13:35:02.131Z,8.46
2019-04-14T13:37:31.273Z,8.30
2019-04-14T13:40:00.385Z,8.26
2019-04-14T13:42:29.554Z,8.23
2019-04-14T13:44:58.685Z,8.25
2019-04-14T13:47:27.885Z,8.29
2019-04-14T13:49:57.049Z,8.25
2019-04-14T13:52:26.188Z,8.29
2019-04-14T13:54:55.293Z,8.28
2019-04-14T13:57:24.435Z,8.16
2019-04-14T13:59:53.701Z,8.14
2019-04-14T14:02:22.877Z,8.12
2019-04-14T14:04:51.990Z,8.10
2019-04-14T14:07:21.122Z,8.12
2019-04-14T14:09:50.255Z,8.12
2019-04-14T14:12:41.192Z,8.05
2019-04-14T14:15:28.251Z,8.03
2019-04-14T14:18:06.952Z,8.05
2019-04-14T14:21:01.319Z,8.03
2019-04-14T14:23:49.380Z,7.12
2019-04-14T14:26:19.617Z,8.03
2019-04-14T14:28:48.756Z,8.02
2019-04-14T14:31:19.151Z,7.98
2019-04-14T14:33:48.276Z,8.01
2019-04-14T14:36:17.413Z,7.95
2019-04-14T14:38:46.560Z,7.99
2019-04-14T14:41:17.364Z,7.94
2019-04-14T14:43:46.493Z,7.92
2019-04-14T14:46:36.827Z,7.86
2019-04-14T14:49:12.003Z,7.74
2019-04-14T14:51:52.812Z,7.65
2019-04-14T14:54:21.947Z,7.61
2019-04-14T14:56:51.276Z,7.63
2019-04-14T14:59:20.391Z,7.58
2019-04-14T15:01:49.559Z,7.37
2019-04-14T15:04:19.191Z,7.61
2019-04-14T15:06:48.535Z,7.64
2019-04-14T15:09:17.677Z,7.44
2019-04-14T15:11:46.800Z,7.26
2019-04-14T15:14:15.970Z,7.13
2019-04-14T15:16:45.118Z,7.09
2019-04-14T15:19:14.640Z,7.01
2019-04-14T15:21:43.810Z,6.90
2019-04-14T15:24:13.004Z,6.83
2019-04-14T15:26:42.139Z,6.77
2019-04-14T15:29:11.271Z,6.74
2019-04-14T15:31:40.414Z,6.71
2019-04-14T15:34:10.743Z,6.66
2019-04-14T15:36:40.088Z,6.68
2019-04-14T15:39:10.029Z,6.65
2019-04-14T15:41:39.362Z,6.71
2019-04-14T15:44:08.416Z,6.78
2019-04-14T15:46:37.572Z,6.86
2019-04-14T15:49:06.726Z,6.81
2019-04-14T15:51:35.872Z,6.81
2019-04-14T15:54:05.022Z,6.87
2019-04-14T15:56:50.032Z,6.93
2019-04-14T15:59:35.626Z,6.99
2019-04-14T16:02:16.560Z,7.05
2019-04-14T16:05:16.713Z,7.09
2019-04-14T16:08:02.586Z,7.12
2019-04-14T16:11:02.571Z,7.13
2019-04-14T16:13:50.688Z,6.99
2019-04-14T16:16:37.503Z,6.93
2019-04-14T16:19:28.472Z,6.79
2019-04-14T16:21:57.581Z,6.77
2019-04-14T16:24:26.682Z,6.75
2019-04-14T16:27:02.977Z,6.75
2019-04-14T16:29:50.028Z,6.75
2019-04-14T16:32:40.967Z,6.73
2019-04-14T16:35:14.468Z,6.76
2019-04-14T16:37:43.648Z,6.78
2019-04-14T16:40:12.931Z,6.82
2019-04-14T16:42:42.141Z,6.78
2019-04-14T16:45:12.197Z,6.76
2019-04-14T16:47:41.346Z,6.72
2019-04-14T16:50:10.680Z,6.68
2019-04-14T16:52:46.248Z,6.65
2019-04-14T16:55:19.967Z,6.55
2019-04-14T16:58:08.529Z,6.51
2019-04-14T17:00:41.064Z,6.51
2019-04-14T17:03:10.239Z,6.50
2019-04-14T17:05:39.398Z,6.53
2019-04-14T17:08:08.542Z,6.46
2019-04-14T17:10:37.689Z,6.38
2019-04-14T17:13:06.873Z,6.38
2019-04-14T17:16:00.923Z,6.41
2019-04-14T17:18:47.566Z,6.40
2019-04-14T17:21:30.795Z,6.39
2019-04-14T17:24:21.922Z,6.36
2019-04-14T17:27:00.855Z,6.33
2019-04-14T17:29:36.499Z,6.32
2019-04-14T17:32:16.043Z,6.34
2019-04-14T17:35:02.915Z,6.32
2019-04-14T17:37:48.001Z,6.30
2019-04-14T17:43:39.679Z,6.27
2019-04-14T17:46:27.794Z,6.28
2019-04-14T17:49:21.223Z,6.23
2019-04-14T17:52:09.371Z,6.18
2019-04-14T17:54:48.435Z,6.14
2019-04-14T17:57:35.279Z,6.14
2019-04-14T18:00:16.298Z,6.20
2019-04-14T18:03:04.400Z,6.14
2019-04-14T18:05:40.690Z,6.12
2019-04-14T18:08:29.191Z,6.13
2019-04-14T18:11:07.041Z,6.10
2019-04-14T18:13:55.169Z,6.10
2019-04-14T18:16:32.184Z,6.09
2019-04-14T18:19:20.345Z,6.09
2019-04-14T18:21:49.447Z,6.11
2019-04-14T18:24:18.600Z,6.12
2019-04-14T18:26:47.744Z,6.13
2019-04-14T18:29:37.790Z,6.12
2019-04-14T18:32:25.868Z,6.09
2019-04-14T18:35:13.684Z,6.10
2019-04-14T18:38:17.001Z,6.09
2019-04-14T18:40:54.191Z,6.08
2019-04-14T18:43:48.142Z,6.07
2019-04-14T18:46:28.409Z,6.06
2019-04-14T18:49:03.327Z,6.07
2019-04-14T18:51:42.422Z,6.05
2019-04-14T18:54:17.860Z,6.02
2019-04-14T18:57:24.003Z,6.04
2019-04-14T19:00:12.099Z,6.04
2019-04-14T19:02:41.319Z,6.05
2019-04-14T19:05:10.437Z,6.03
2019-04-14T19:07:39.637Z,6.02
2019-04-14T19:10:08.867Z,6.02
2019-04-14T19:12:53.221Z,6.04
2019-04-14T19:15:41.339Z,6.04
2019-04-14T19:18:16.760Z,6.05
2019-04-14T19:20:49.721Z,6.06
2019-04-14T19:23:19.097Z,6.06
2019-04-14T19:25:48.246Z,6.08
2019-04-14T19:28:17.443Z,6.09
2019-04-14T19:30:46.640Z,6.07
2019-04-14T19:33:15.843Z,6.09
2019-04-14T19:35:44.992Z,6.10
2019-04-14T19:38:14.139Z,6.10
2019-04-14T19:40:43.334Z,6.12
2019-04-14T19:43:23.155Z,6.12
2019-04-14T19:45:43.558Z,6.12
2019-04-14T19:48:12.711Z,6.13
2019-04-14T19:50:41.956Z,6.14
2019-04-14T19:53:11.215Z,6.15
2019-04-14T19:55:40.473Z,6.14
2019-04-14T19:58:09.639Z,6.11
2019-04-14T20:00:38.797Z,6.13
2019-04-14T20:03:07.911Z,6.12
2019-04-14T20:05:37.096Z,6.12
2019-04-14T20:08:06.408Z,6.11
2019-04-14T20:10:35.682Z,6.11
2019-04-14T20:13:04.985Z,6.13
2019-04-14T20:15:37.584Z,6.12
2019-04-14T20:18:23.253Z,6.12
2019-04-14T20:21:10.130Z,6.12
2019-04-14T20:23:43.096Z,6.09
2019-04-14T20:26:37.773Z,6.08
2019-04-14T20:29:19.252Z,6.08
2019-04-14T20:31:54.260Z,6.08
2019-04-14T20:34:23.388Z,6.07
2019-04-14T20:36:52.570Z,6.04
2019-04-14T20:39:22.230Z,6.02
2019-04-14T20:41:51.358Z,6.03
2019-04-14T20:44:20.590Z,6.03
2019-04-14T20:46:49.741Z,6.04
2019-04-14T20:49:18.880Z,6.06
2019-04-14T20:51:48.107Z,6.08
2019-04-14T20:54:17.242Z,6.08
2019-04-14T20:56:46.391Z,6.09
2019-04-14T20:59:15.609Z,6.07
2019-04-14T21:01:50.923Z,6.06
2019-04-14T21:04:28.961Z,6.04
2019-04-14T21:07:32.407Z,6.03
2019-04-14T21:10:12.373Z,6.03
2019-04-14T21:13:00.469Z,6.02
2019-04-14T21:15:34.600Z,6.03
2019-04-14T21:18:25.581Z,6.03
2019-04-14T21:21:05.419Z,6.05
2019-04-14T21:23:40.725Z,6.05
2019-04-14T21:26:28.803Z,6.04
2019-04-14T21:29:10.968Z,6.03
2019-04-14T21:31:48.721Z,6.00
2019-04-14T21:34:36.827Z,6.01
2019-04-14T21:37:23.702Z,6.02
2019-04-14T21:40:15.039Z,6.03
2019-04-14T21:42:44.463Z,6.05
2019-04-14T21:45:13.617Z,6.06
2019-04-14T21:47:42.751Z,6.08
2019-04-14T21:50:12.063Z,6.08
2019-04-14T21:52:43.869Z,6.10
2019-04-14T21:55:12.999Z,6.10
2019-04-14T21:58:04.719Z,6.10
2019-04-14T22:01:44.849Z,6.10
2019-04-14T22:04:48.319Z,6.10
2019-04-14T22:07:30.247Z,5.41
2019-04-14T22:10:30.390Z,6.11
2019-04-14T22:12:59.507Z,6.11
2019-04-14T22:15:28.683Z,6.13
2019-04-14T22:17:57.852Z,6.14
2019-04-14T22:20:26.991Z,6.12
2019-04-14T22:22:56.180Z,6.12
2019-04-14T22:25:25.355Z,6.12
2019-04-14T22:27:54.562Z,4.39
2019-04-14T22:30:23.695Z,6.12
2019-04-14T22:32:52.855Z,6.12
2019-04-14T22:35:22.069Z,6.11
2019-04-14T22:37:51.214Z,6.13
2019-04-14T22:40:20.331Z,6.12
2019-04-14T22:42:50.096Z,6.12
2019-04-14T22:45:19.230Z,6.12
2019-04-14T22:47:48.678Z,6.12
2019-04-14T22:50:17.803Z,6.12
2019-04-14T22:52:46.952Z,6.13
2019-04-14T22:55:16.058Z,6.12
2019-04-14T22:57:45.214Z,6.13
2019-04-14T23:00:33.160Z,6.10
2019-04-14T23:03:18.450Z,6.13
2019-04-14T23:06:06.544Z,6.12
2019-04-14T23:08:39.956Z,6.14
2019-04-14T23:11:29.341Z,6.14
2019-04-14T23:14:13.804Z,6.15
2019-04-14T23:17:00.456Z,6.11
2019-04-14T23:19:34.698Z,6.10
2019-04-14T23:22:14.440Z,6.09
2019-04-14T23:24:46.042Z,6.09
2019-04-14T23:27:15.202Z,6.09
2019-04-14T23:29:44.367Z,6.10
2019-04-14T23:32:13.524Z,6.10
2019-04-14T23:34:42.695Z,6.10
2019-04-14T23:37:11.854Z,6.10
2019-04-14T23:39:41.118Z,6.09
2019-04-14T23:42:10.331Z,6.08
2019-04-14T23:44:39.484Z,6.07
2019-04-14T23:47:08.653Z,6.07
2019-04-14T23:49:37.790Z,6.06
2019-04-14T23:52:06.957Z,6.06
2019-04-14T23:54:36.077Z,6.06
2019-04-14T23:57:06.725Z,6.06
2019-04-14T23:59:36.048Z,6.06
